Time;durP1;ratioP1;P1;durP2;ratioP2;P2;SDS_P1;SDS_P2;PMS_P1;PMS_P2;Temp;Humidity;BMP_temperature;BMP_pressure;BME280_temperature;BME280_humidity;BME280_pressure;Samples;Min_cycle;Max_cycle;Signal;HPM_P1;HPM_P2
2021/09/03 17:23:08;;;;;;;7.35;5.57;;;20.50;73.40;;;;;;2605416;54;20069;-68
2021/09/03 17:25:46;;;;;;;8.02;5.50;;;20.40;73.80;;;;;;2609133;47;20038;-72
2021/09/03 17:28:12;;;;;;;7.85;5.35;;;20.40;73.80;;;;;;2608949;54;20038;-73
2021/09/03 17:30:38;;;;;;;7.55;5.30;;;20.30;74.70;;;;;;2608664;54;20030;-73
2021/09/03 17:33:04;;;;;;;8.43;5.80;;;20.20;74.70;;;;;;2610346;39;20461;-72
2021/09/03 17:35:30;;;;;;;12.13;5.57;;;20.20;75.10;;;;;;2609419;54;20983;-72
2021/09/03 17:37:56;;;;;;;8.98;6.20;;;20.10;75.10;;;;;;2609081;54;20034;-72
2021/09/03 17:40:21;;;;;;;7.65;5.68;;;20.10;75.50;;;;;;2609121;54;20050;-72
2021/09/03 17:42:48;;;;;;;9.00;6.55;;;20.00;75.00;;;;;;2609737;39;20553;-72
2021/09/03 17:45:14;;;;;;;9.95;6.22;;;19.90;75.20;;;;;;2609006;54;20034;-73
2021/09/03 17:47:40;;;;;;;6.95;6.15;;;19.80;75.40;;;;;;2608734;54;20094;-72
2021/09/03 17:50:08;;;;;;;9.15;6.07;;;19.80;75.50;;;;;;2609284;54;20030;-71
2021/09/03 17:52:34;;;;;;;8.73;6.45;;;19.70;76.20;;;;;;2608755;47;20925;-72
2021/09/03 17:55:00;;;;;;;8.20;6.55;;;19.70;76.20;;;;;;2609183;54;20046;-72
2021/09/03 17:57:26;;;;;;;10.05;7.65;;;19.60;76.50;;;;;;2609419;54;20038;-72
2021/09/03 17:59:51;;;;;;;9.30;7.10;;;19.50;76.90;;;;;;2608833;54;20046;-72
2021/09/03 18:02:18;;;;;;;9.10;7.10;;;19.50;77.00;;;;;;2610327;39;20090;-71
2021/09/03 18:04:44;;;;;;;10.40;7.60;;;19.40;76.00;;;;;;2609351;47;20083;-72
2021/09/03 18:07:10;;;;;;;9.15;7.10;;;19.30;75.20;;;;;;2608989;54;20042;-72
2021/09/03 18:09:37;;;;;;;10.32;6.95;;;19.30;75.10;;;;;;2609755;54;20933;-71
2021/09/03 18:12:04;;;;;;;12.30;7.68;;;19.20;75.90;;;;;;2609440;54;20050;-73
2021/09/03 18:14:30;;;;;;;9.98;7.63;;;19.10;76.20;;;;;;2609491;54;20042;-72
2021/09/03 18:16:56;;;;;;;10.63;7.47;;;19.10;76.90;;;;;;2609462;54;20060;-72
2021/09/03 18:19:23;;;;;;;10.77;8.18;;;19.00;77.10;;;;;;2608993;54;20153;-72
2021/09/03 18:21:50;;;;;;;13.23;8.50;;;19.00;78.10;;;;;;2609748;39;20474;-71
2021/09/03 18:24:17;;;;;;;14.98;9.95;;;18.90;78.20;;;;;;2609399;54;20043;-71
2021/09/03 18:26:43;;;;;;;13.82;9.52;;;18.90;78.40;;;;;;2609738;54;20034;-72
2021/09/03 18:29:10;;;;;;;12.63;9.35;;;18.90;78.30;;;;;;2608825;54;20030;-71
2021/09/03 18:31:36;;;;;;;13.65;10.05;;;18.80;78.30;;;;;;2608795;54;20054;-71
2021/09/03 18:34:02;;;;;;;13.65;9.50;;;18.80;78.40;;;;;;2609904;54;20685;-71
2021/09/03 18:36:29;;;;;;;13.85;9.77;;;18.70;78.20;;;;;;2607756;47;20550;-71
2021/09/03 18:38:54;;;;;;;13.95;8.80;;;18.70;78.00;;;;;;2609343;54;20598;-71
2021/09/03 18:41:20;;;;;;;11.65;8.77;;;18.60;77.20;;;;;;2608855;47;20034;-71
2021/09/03 18:43:46;;;;;;;10.82;8.25;;;18.60;77.40;;;;;;2608734;54;20034;-71
2021/09/03 18:46:12;;;;;;;12.32;8.82;;;18.60;76.90;;;;;;2609873;54;20126;-71
2021/09/03 18:48:37;;;;;;;11.80;8.40;;;18.50;77.00;;;;;;2609049;54;20038;-71
2021/09/03 18:51:03;;;;;;;10.60;8.32;;;18.50;77.30;;;;;;2609654;54;20069;-71
2021/09/03 18:53:30;;;;;;;15.13;9.32;;;18.40;77.80;;;;;;2610194;54;20040;-71
2021/09/03 18:55:57;;;;;;;15.80;10.30;;;18.30;78.00;;;;;;2609835;54;20122;-71
2021/09/03 18:58:23;;;;;;;13.55;9.48;;;18.30;78.10;;;;;;2608591;54;20570;-71
2021/09/03 19:00:49;;;;;;;13.52;9.07;;;18.20;78.20;;;;;;2608170;54;20086;-71
2021/09/03 19:03:15;;;;;;;12.68;9.30;;;18.20;78.70;;;;;;2609449;39;20800;-72
2021/09/03 19:05:42;;;;;;;12.18;8.80;;;18.10;79.50;;;;;;2608539;54;20689;-72
2021/09/03 19:08:08;;;;;;;13.68;10.07;;;18.00;80.40;;;;;;2608388;54;20060;-72
2021/09/03 19:10:34;;;;;;;16.05;9.50;;;17.90;81.10;;;;;;2608543;54;20046;-72
2021/09/03 19:13:01;;;;;;;17.88;9.43;;;17.90;80.80;;;;;;2608299;54;20038;-71
2021/09/03 19:15:29;;;;;;;13.98;9.93;;;17.80;80.60;;;;;;2608195;47;20040;-72
2021/09/03 19:17:58;;;;;;;13.30;9.30;;;17.70;81.90;;;;;;2607741;54;20042;-71
2021/09/03 19:20:24;;;;;;;13.80;9.55;;;17.60;82.40;;;;;;2608249;54;20146;-71
2021/09/03 19:22:50;;;;;;;12.40;9.10;;;17.60;83.00;;;;;;2609238;54;20034;-71
2021/09/03 19:25:15;;;;;;;13.57;9.82;;;17.60;83.30;;;;;;2608924;54;20042;-72
2021/09/03 19:27:42;;;;;;;15.40;9.38;;;17.50;83.20;;;;;;2608601;54;20842;-72
2021/09/03 19:30:08;;;;;;;14.18;9.88;;;17.50;83.50;;;;;;2608261;54;20058;-72
2021/09/03 19:32:34;;;;;;;14.70;9.57;;;17.50;83.00;;;;;;2609199;39;20354;-72
2021/09/03 19:35:00;;;;;;;13.63;9.70;;;17.40;83.00;;;;;;2608902;54;20042;-72
2021/09/03 19:37:25;;;;;;;14.80;10.07;;;17.30;82.70;;;;;;2608090;54;20043;-72
2021/09/03 19:39:51;;;;;;;13.10;9.70;;;17.30;83.20;;;;;;2608587;54;20038;-72
2021/09/03 19:42:17;;;;;;;16.35;10.93;;;17.30;83.80;;;;;;2608102;54;20161;-72
2021/09/03 19:44:43;;;;;;;17.27;11.98;;;17.20;84.10;;;;;;2608672;54;20042;-72
2021/09/03 19:47:09;;;;;;;18.20;11.90;;;17.20;84.40;;;;;;2608555;54;20044;-72
2021/09/03 19:49:35;;;;;;;18.38;10.80;;;17.20;84.40;;;;;;2607805;54;20920;-72
2021/09/03 19:52:02;;;;;;;14.43;10.75;;;17.10;84.50;;;;;;2608548;54;20042;-72
2021/09/03 19:54:28;;;;;;;16.23;10.85;;;17.10;84.70;;;;;;2608084;54;20039;-72
2021/09/03 19:56:54;;;;;;;13.65;10.35;;;17.10;84.80;;;;;;2608029;54;20050;-72
2021/09/03 19:59:20;;;;;;;13.85;9.82;;;17.10;84.70;;;;;;2608837;54;20149;-72
2021/09/03 20:01:46;;;;;;;14.23;10.57;;;17.10;84.40;;;;;;2607505;54;20078;-72
2021/09/03 20:04:12;;;;;;;15.23;9.98;;;17.10;84.40;;;;;;2608902;39;20601;-73
2021/09/03 20:06:38;;;;;;;16.63;11.27;;;17.00;84.40;;;;;;2608766;54;20046;-72
2021/09/03 20:09:04;;;;;;;16.38;11.20;;;17.00;84.50;;;;;;2608429;39;20363;-73
2021/09/03 20:11:29;;;;;;;13.23;9.35;;;17.00;84.30;;;;;;2607530;54;20107;-72
2021/09/03 20:13:55;;;;;;;15.93;10.23;;;17.00;84.40;;;;;;2607777;47;20042;-72
2021/09/03 20:16:21;;;;;;;13.73;10.15;;;17.00;85.00;;;;;;2608272;54;20856;-73
2021/09/03 20:18:47;;;;;;;17.38;10.15;;;17.00;85.60;;;;;;2607635;54;20920;-73
2021/09/03 20:21:12;;;;;;;15.15;10.32;;;16.90;85.60;;;;;;2607982;54;20038;-72
2021/09/03 20:23:38;;;;;;;17.70;11.75;;;16.90;86.00;;;;;;2608484;54;20042;-72
2021/09/03 20:26:04;;;;;;;15.90;10.80;;;16.90;86.30;;;;;;2608030;54;20042;-73
2021/09/03 20:28:30;;;;;;;19.42;11.88;;;16.80;86.20;;;;;;2608452;54;20060;-72
2021/09/03 20:30:55;;;;;;;17.75;11.98;;;16.80;86.20;;;;;;2607757;54;20073;-72
2021/09/03 20:33:21;;;;;;;19.02;12.68;;;16.70;85.90;;;;;;2608064;54;20034;-72
2021/09/03 20:35:47;;;;;;;20.17;13.15;;;16.70;85.80;;;;;;2608234;54;20026;-72
2021/09/03 20:38:13;;;;;;;28.80;15.98;;;16.60;86.30;;;;;;2607850;54;20046;-72
2021/09/03 20:40:38;;;;;;;26.80;15.75;;;16.60;86.70;;;;;;2607921;54;20041;-74
2021/09/03 20:43:04;;;;;;;27.05;15.23;;;16.50;87.00;;;;;;2608191;54;20046;-73
2021/09/03 20:45:30;;;;;;;25.52;15.65;;;16.50;87.30;;;;;;2608497;54;20030;-73
2021/09/03 20:47:55;;;;;;;22.55;13.73;;;16.50;87.60;;;;;;2607813;54;20110;-71
2021/09/03 20:50:21;;;;;;;23.48;13.95;;;16.40;88.00;;;;;;2607935;54;20030;-71
2021/09/03 20:52:47;;;;;;;22.77;14.05;;;16.40;88.40;;;;;;2606647;54;20038;-71
2021/09/03 20:55:15;;;;;;;19.55;12.75;;;16.40;88.70;;;;;;2607802;54;20138;-71
2021/09/03 20:57:42;;;;;;;17.90;12.48;;;16.40;89.00;;;;;;2606443;47;20920;-71
2021/09/03 21:00:08;;;;;;;19.85;11.98;;;16.30;89.10;;;;;;2607566;54;20068;-71
2021/09/03 21:02:34;;;;;;;20.55;13.32;;;16.30;89.30;;;;;;2609219;54;20038;-71
2021/09/03 21:05:01;;;;;;;18.02;12.27;;;16.30;89.50;;;;;;2609804;39;20552;-70
2021/09/03 21:07:27;;;;;;;17.70;11.90;;;16.30;90.00;;;;;;2610359;54;20042;-70
2021/09/03 21:09:53;;;;;;;19.42;12.60;;;16.30;90.20;;;;;;2610241;54;20026;-70
2021/09/03 21:12:19;;;;;;;18.02;12.68;;;16.30;90.40;;;;;;2610006;39;20756;-70
2021/09/03 21:14:45;;;;;;;19.83;13.07;;;16.30;90.50;;;;;;2610243;54;20067;-70
2021/09/03 21:17:11;;;;;;;19.63;12.88;;;16.30;90.60;;;;;;2607551;54;20038;-70
2021/09/03 21:19:36;;;;;;;17.85;12.15;;;16.30;90.60;;;;;;2607203;54;20077;-70
2021/09/03 21:22:02;;;;;;;19.98;12.80;;;16.30;90.50;;;;;;2608633;54;20082;-71
2021/09/03 21:24:30;;;;;;;18.85;12.50;;;16.30;90.50;;;;;;2608990;54;20038;-71
2021/09/03 21:26:58;;;;;;;16.70;10.82;;;16.30;90.30;;;;;;2608155;54;20179;-71
2021/09/03 21:29:24;;;;;;;17.05;11.65;;;16.20;90.30;;;;;;2608554;54;20061;-71
2021/09/03 21:31:50;;;;;;;15.45;10.73;;;16.20;90.00;;;;;;2609438;54;20035;-70
2021/09/03 21:34:16;;;;;;;14.27;9.98;;;16.20;89.60;;;;;;2609473;54;20046;-70
2021/09/03 21:36:42;;;;;;;19.05;11.50;;;16.10;89.40;;;;;;2610448;39;20790;-71
2021/09/03 21:39:08;;;;;;;17.92;12.27;;;16.10;89.50;;;;;;2609498;54;20189;-71
2021/09/03 21:41:34;;;;;;;18.92;13.05;;;16.10;90.00;;;;;;2609704;54;20157;-70
2021/09/03 21:43:59;;;;;;;21.52;14.10;;;16.10;90.20;;;;;;2609215;54;20030;-69
2021/09/03 21:46:25;;;;;;;22.63;14.65;;;16.00;90.50;;;;;;2609614;54;20026;-71
2021/09/03 21:48:51;;;;;;;20.65;14.23;;;16.10;90.70;;;;;;2609364;54;20288;-70
2021/09/03 21:51:17;;;;;;;20.50;14.07;;;16.10;90.90;;;;;;2609577;54;20690;-70
2021/09/03 21:53:43;;;;;;;19.42;14.07;;;16.00;91.00;;;;;;2610261;54;20038;-71
2021/09/03 21:56:08;;;;;;;19.83;12.88;;;16.00;91.00;;;;;;2609514;54;20030;-70
2021/09/03 21:58:34;;;;;;;19.45;12.15;;;16.00;91.00;;;;;;2609670;54;20049;-71
2021/09/03 22:01:00;;;;;;;20.83;13.05;;;16.00;91.00;;;;;;2610005;54;20033;-71
2021/09/03 22:03:26;;;;;;;19.73;12.25;;;16.00;91.00;;;;;;2609462;54;20027;-71
2021/09/03 22:05:51;;;;;;;20.15;12.93;;;16.00;91.00;;;;;;2609096;51;20055;-71
2021/09/03 22:08:17;;;;;;;18.73;12.57;;;16.00;91.00;;;;;;2609122;54;20039;-71
2021/09/03 22:10:43;;;;;;;19.70;13.02;;;15.90;90.90;;;;;;2609386;54;20075;-70
2021/09/03 22:13:08;;;;;;;21.23;13.27;;;15.90;91.00;;;;;;2609261;54;20034;-71
2021/09/03 22:15:36;;;;;;;18.42;12.77;;;15.90;91.10;;;;;;2609666;54;20063;-71
2021/09/03 22:18:07;;;;;;;20.30;12.77;;;15.80;91.10;;;;;;2608932;54;20035;-71
2021/09/03 22:20:34;;;;;;;18.17;12.48;;;15.80;91.20;;;;;;2608707;54;20030;-71
2021/09/03 22:23:00;;;;;;;18.35;12.13;;;15.80;90.90;;;;;;2610049;39;20394;-71
2021/09/03 22:25:27;;;;;;;16.55;11.80;;;15.80;90.70;;;;;;2609277;54;20125;-69
2021/09/03 22:27:53;;;;;;;20.60;13.07;;;15.80;90.70;;;;;;2609372;54;20050;-71
2021/09/03 22:30:19;;;;;;;19.45;12.65;;;15.80;90.80;;;;;;2609283;54;20095;-71
2021/09/03 22:32:44;;;;;;;22.30;12.45;;;15.80;91.00;;;;;;2609709;39;20542;-71
2021/09/03 22:35:10;;;;;;;19.05;11.20;;;15.80;91.20;;;;;;2609578;54;20034;-71
2021/09/03 22:37:36;;;;;;;19.25;12.60;;;15.70;90.60;;;;;;2607713;47;20034;-71
2021/09/03 22:40:04;;;;;;;16.73;11.95;;;15.60;90.00;;;;;;2608060;39;20858;-71
2021/09/03 22:42:29;;;;;;;20.80;12.20;;;15.60;90.00;;;;;;2607326;54;20038;-71
2021/09/03 22:44:55;;;;;;;18.50;12.45;;;15.50;90.10;;;;;;2608081;54;20601;-70
2021/09/03 22:47:21;;;;;;;21.00;13.30;;;15.50;90.50;;;;;;2607226;54;20065;-71
2021/09/03 22:49:46;;;;;;;20.52;13.68;;;15.50;90.70;;;;;;2607858;54;20026;-71
2021/09/03 22:52:12;;;;;;;18.63;13.20;;;15.50;91.00;;;;;;2607553;54;20042;-71
2021/09/03 22:54:38;;;;;;;23.67;14.00;;;15.50;91.10;;;;;;2607674;54;20027;-71
2021/09/03 22:57:03;;;;;;;19.80;14.02;;;15.50;91.20;;;;;;2607277;54;20059;-71
2021/09/03 22:59:29;;;;;;;19.38;13.90;;;15.50;91.30;;;;;;2607113;54;20046;-71
2021/09/03 23:01:55;;;;;;;20.15;13.85;;;15.50;91.40;;;;;;2607673;54;20060;-71
2021/09/03 23:04:20;;;;;;;22.83;14.65;;;15.50;91.50;;;;;;2607570;54;20027;-71
2021/09/03 23:06:46;;;;;;;21.52;14.15;;;15.50;91.60;;;;;;2607728;54;20042;-70
2021/09/03 23:09:12;;;;;;;18.38;12.82;;;15.50;91.60;;;;;;2608515;54;20058;-70
2021/09/03 23:11:37;;;;;;;21.00;13.73;;;15.50;91.50;;;;;;2609265;54;20195;-70
2021/09/03 23:14:03;;;;;;;21.52;13.73;;;15.40;91.50;;;;;;2609708;54;20027;-70
2021/09/03 23:16:28;;;;;;;19.27;12.93;;;15.40;91.50;;;;;;2609266;54;20046;-70
2021/09/03 23:18:54;;;;;;;18.67;13.00;;;15.40;91.50;;;;;;2609506;54;20069;-70
2021/09/03 23:21:20;;;;;;;19.95;13.32;;;15.30;91.40;;;;;;2609159;46;20059;-70
2021/09/03 23:23:46;;;;;;;20.48;13.45;;;15.30;91.40;;;;;;2609112;54;20054;-70
2021/09/03 23:26:11;;;;;;;24.58;14.80;;;15.30;91.40;;;;;;2609182;54;20033;-70
2021/09/03 23:28:37;;;;;;;19.88;13.70;;;15.30;91.40;;;;;;2608281;39;20442;-70
2021/09/03 23:31:02;;;;;;;22.25;13.85;;;15.30;91.40;;;;;;2608923;54;20034;-70
2021/09/03 23:33:28;;;;;;;21.63;13.25;;;15.30;91.50;;;;;;2608795;54;20566;-70
2021/09/03 23:35:54;;;;;;;22.13;13.65;;;15.20;91.50;;;;;;2609145;54;20046;-70
2021/09/03 23:38:19;;;;;;;19.65;13.38;;;15.20;91.50;;;;;;2608718;54;20062;-70
2021/09/03 23:40:45;;;;;;;23.35;14.10;;;15.20;91.50;;;;;;2609350;54;20031;-70
2021/09/03 23:43:11;;;;;;;20.85;13.60;;;15.20;91.60;;;;;;2609352;54;20034;-69
2021/09/03 23:45:36;;;;;;;19.42;13.70;;;15.20;91.60;;;;;;2609266;39;20446;-70
2021/09/03 23:48:02;;;;;;;19.52;12.98;;;15.20;91.60;;;;;;2609217;54;20075;-69
2021/09/03 23:50:28;;;;;;;23.65;14.02;;;15.10;91.60;;;;;;2608496;54;20053;-70
2021/09/03 23:52:54;;;;;;;18.17;12.88;;;15.10;91.50;;;;;;2608979;54;20157;-69
2021/09/03 23:55:19;;;;;;;18.98;12.80;;;15.10;91.30;;;;;;2608687;54;21238;-69
2021/09/03 23:57:45;;;;;;;17.45;12.27;;;15.10;91.20;;;;;;2608142;54;20034;-70
